Time;durP1;ratioP1;P1;durP2;ratioP2;P2;SDS_P1;SDS_P2;PMS_P1;PMS_P2;Temp;Humidity;BMP_temperature;BMP_pressure;BME280_temperature;BME280_humidity;BME280_pressure;Samples;Min_cycle;Max_cycle;Signal;HPM_P1;HPM_P2
2023/04/19 00:00:34;;;;;;;7.20;4.38;;;11.30;76.20;;;;;;5009864;28;20061;-61
2023/04/19 00:03:00;;;;;;;5.63;4.20;;;11.30;76.20;;;;;;5011932;28;20037;-61
2023/04/19 00:05:27;;;;;;;5.50;4.15;;;11.30;76.90;;;;;;5013266;28;20456;-62
2023/04/19 00:07:53;;;;;;;6.43;3.75;;;11.30;76.20;;;;;;5014971;28;20026;-61
2023/04/19 00:10:19;;;;;;;5.32;4.05;;;11.30;76.10;;;;;;5011515;28;20033;-62
2023/04/19 00:12:45;;;;;;;6.03;4.43;;;11.30;76.10;;;;;;5020506;28;20456;-61
2023/04/19 00:15:10;;;;;;;7.68;4.35;;;11.30;76.10;;;;;;5005929;28;20108;-63
2023/04/19 00:17:36;;;;;;;6.47;4.53;;;11.30;76.10;;;;;;5012856;28;20030;-62
2023/04/19 00:20:04;;;;;;;6.22;4.22;;;11.30;76.10;;;;;;5014426;28;20124;-62
2023/04/19 00:22:30;;;;;;;6.00;3.80;;;11.30;76.10;;;;;;5023752;28;20029;-62
2023/04/19 00:24:55;;;;;;;9.00;4.10;;;11.30;76.00;;;;;;5018687;28;20033;-59
2023/04/19 00:27:21;;;;;;;6.35;4.10;;;11.30;76.00;;;;;;5011959;28;20026;-57
2023/04/19 00:29:47;;;;;;;6.00;4.00;;;11.30;75.90;;;;;;5010566;28;20030;-57
2023/04/19 00:32:12;;;;;;;5.78;3.92;;;11.30;76.00;;;;;;5010395;28;20068;-57
2023/04/19 00:34:38;;;;;;;5.45;4.30;;;11.40;76.00;;;;;;5010785;28;20034;-57
2023/04/19 00:37:04;;;;;;;6.45;4.65;;;11.40;76.00;;;;;;5008202;28;20045;-60
2023/04/19 00:39:30;;;;;;;7.07;4.28;;;11.40;76.10;;;;;;5011649;28;20060;-57
2023/04/19 00:41:58;;;;;;;7.57;4.43;;;11.30;76.10;;;;;;5010285;28;20072;-57
2023/04/19 00:44:24;;;;;;;5.68;4.22;;;11.30;76.20;;;;;;5019303;28;20037;-57
2023/04/19 00:46:50;;;;;;;6.20;4.50;;;11.30;76.30;;;;;;5016237;28;20032;-57
2023/04/19 00:49:17;;;;;;;5.95;4.07;;;11.30;76.40;;;;;;5011338;28;20048;-57
2023/04/19 00:51:43;;;;;;;4.60;3.85;;;11.30;76.50;;;;;;5013375;28;20464;-58
2023/04/19 00:54:09;;;;;;;5.10;3.90;;;11.20;76.40;;;;;;5020894;28;20033;-62
2023/04/19 00:56:35;;;;;;;5.93;3.78;;;11.30;76.60;;;;;;5011100;28;20396;-62
2023/04/19 00:59:01;;;;;;;5.75;4.22;;;11.30;76.60;;;;;;5006450;28;20032;-61
2023/04/19 01:01:27;;;;;;;5.53;4.05;;;11.30;76.60;;;;;;5013369;28;20511;-63
2023/04/19 01:03:53;;;;;;;5.60;4.20;;;11.30;76.60;;;;;;5016449;28;20061;-63
2023/04/19 01:06:19;;;;;;;6.30;4.05;;;11.30;76.60;;;;;;5011788;28;20135;-65
2023/04/19 01:08:45;;;;;;;5.10;4.00;;;11.30;76.60;;;;;;5010949;28;20379;-62
2023/04/19 01:11:11;;;;;;;7.07;4.15;;;11.30;76.50;;;;;;5012286;28;20034;-62
2023/04/19 01:13:36;;;;;;;7.90;4.93;;;11.30;76.50;;;;;;5016733;28;20052;-63
2023/04/19 01:16:02;;;;;;;7.93;4.32;;;11.30;76.60;;;;;;5012909;28;20513;-63
2023/04/19 01:18:31;;;;;;;5.10;3.75;;;11.30;76.60;;;;;;5010105;28;20025;-63
2023/04/19 01:20:58;;;;;;;6.70;4.05;;;11.30;76.50;;;;;;5019194;28;20041;-62
2023/04/19 01:23:23;;;;;;;5.72;4.55;;;11.30;76.40;;;;;;5012735;28;20053;-61
2023/04/19 01:25:49;;;;;;;7.05;4.63;;;11.30;76.50;;;;;;5012207;28;20065;-63
2023/04/19 01:28:15;;;;;;;5.00;3.95;;;11.30;76.50;;;;;;5017714;28;20057;-63
2023/04/19 01:30:40;;;;;;;5.43;4.10;;;11.30;76.60;;;;;;5016251;28;20036;-63
2023/04/19 01:33:06;;;;;;;4.85;4.03;;;11.30;76.50;;;;;;5007669;28;20113;-63
2023/04/19 01:35:32;;;;;;;6.22;4.10;;;11.30;76.50;;;;;;5007448;28;20057;-63
2023/04/19 01:37:58;;;;;;;5.90;4.25;;;11.30;76.40;;;;;;5013447;28;20051;-63
2023/04/19 01:40:24;;;;;;;5.43;4.10;;;11.30;76.30;;;;;;5015944;28;20053;-63
2023/04/19 01:42:51;;;;;;;6.60;4.03;;;11.30;76.40;;;;;;5012462;28;20021;-63
2023/04/19 01:45:16;;;;;;;6.03;4.38;;;11.30;76.40;;;;;;5009865;28;20725;-63
2023/04/19 01:47:42;;;;;;;4.80;3.83;;;11.40;76.40;;;;;;5019512;28;20030;-63
2023/04/19 01:50:08;;;;;;;5.60;4.00;;;11.40;76.30;;;;;;5014344;28;20033;-63
2023/04/19 01:52:34;;;;;;;6.50;4.25;;;11.40;76.20;;;;;;5020042;28;20032;-63
2023/04/19 01:54:59;;;;;;;6.60;4.25;;;11.40;76.10;;;;;;5007721;28;20030;-58
2023/04/19 01:57:25;;;;;;;6.82;4.13;;;11.40;76.10;;;;;;5012399;28;20060;-59
2023/04/19 01:59:52;;;;;;;5.78;4.32;;;11.40;76.20;;;;;;5012649;28;20043;-59
2023/04/19 02:02:18;;;;;;;6.80;4.28;;;11.30;76.10;;;;;;5015319;28;20038;-58
2023/04/19 02:04:44;;;;;;;6.45;4.40;;;11.30;76.10;;;;;;5013243;28;20044;-61
2023/04/19 02:07:10;;;;;;;7.43;4.07;;;11.20;76.30;;;;;;5011878;28;20447;-62
2023/04/19 02:09:36;;;;;;;4.55;3.50;;;11.20;76.30;;;;;;5009571;28;20014;-61
2023/04/19 02:12:03;;;;;;;4.72;3.47;;;11.10;76.30;;;;;;5009415;28;20626;-61
2023/04/19 02:14:29;;;;;;;4.63;3.65;;;11.10;76.20;;;;;;5015422;28;20037;-61
2023/04/19 02:16:55;;;;;;;5.60;3.92;;;11.00;76.20;;;;;;5011916;28;20034;-61
2023/04/19 02:19:20;;;;;;;5.35;4.03;;;11.00;76.30;;;;;;5014540;28;20076;-61
2023/04/19 02:21:46;;;;;;;7.50;4.00;;;11.00;76.30;;;;;;5024566;28;20038;-61
2023/04/19 02:24:12;;;;;;;7.25;4.72;;;10.90;76.30;;;;;;5014510;28;20100;-58
2023/04/19 02:26:38;;;;;;;7.40;4.20;;;10.90;77.00;;;;;;5015925;28;20457;-60
2023/04/19 02:29:04;;;;;;;6.65;4.43;;;10.80;76.40;;;;;;5012315;28;20488;-58
2023/04/19 02:31:30;;;;;;;5.60;4.00;;;10.80;76.40;;;;;;5019858;28;20099;-59
2023/04/19 02:33:56;;;;;;;6.47;4.20;;;10.80;76.40;;;;;;5013318;28;20022;-59
2023/04/19 02:36:21;;;;;;;5.85;4.45;;;10.80;76.40;;;;;;5014008;28;20034;-58
2023/04/19 02:38:47;;;;;;;6.32;4.40;;;10.90;76.30;;;;;;5013861;28;20041;-63
2023/04/19 02:41:13;;;;;;;6.30;4.35;;;10.90;76.20;;;;;;5020731;28;20041;-63
2023/04/19 02:43:39;;;;;;;7.70;4.28;;;10.90;76.10;;;;;;5012387;28;20030;-63
2023/04/19 02:46:05;;;;;;;5.13;3.83;;;10.90;76.10;;;;;;5015021;28;20022;-61
2023/04/19 02:48:30;;;;;;;6.45;4.10;;;10.90;76.10;;;;;;5020457;28;20080;-62
2023/04/19 02:50:57;;;;;;;7.72;4.78;;;10.80;76.00;;;;;;5014806;28;20033;-62
2023/04/19 02:53:22;;;;;;;7.13;4.03;;;10.80;76.00;;;;;;5020330;28;20057;-57
2023/04/19 02:55:48;;;;;;;5.30;3.90;;;10.80;75.90;;;;;;5018768;28;20057;-57
2023/04/19 02:58:14;;;;;;;7.65;3.72;;;10.80;75.80;;;;;;5013960;28;20033;-58
2023/04/19 03:00:39;;;;;;;6.28;4.40;;;10.80;75.70;;;;;;5011418;28;20160;-58
2023/04/19 03:03:06;;;;;;;4.88;3.70;;;10.80;75.80;;;;;;5011654;28;20164;-58
2023/04/19 03:05:32;;;;;;;5.95;3.90;;;10.80;75.80;;;;;;5017161;28;20057;-60
2023/04/19 03:07:57;;;;;;;5.55;3.90;;;10.90;75.80;;;;;;5014630;28;20424;-60
2023/04/19 03:10:23;;;;;;;5.53;4.28;;;10.80;75.80;;;;;;5021186;28;20070;-60
2023/04/19 03:12:49;;;;;;;5.43;3.90;;;10.90;75.90;;;;;;5018881;28;20084;-60
2023/04/19 03:15:15;;;;;;;7.22;4.30;;;10.90;75.90;;;;;;5012814;28;20057;-60
2023/04/19 03:17:41;;;;;;;5.95;4.22;;;10.90;76.00;;;;;;5009834;28;20565;-61
2023/04/19 03:20:10;;;;;;;6.53;4.32;;;10.90;76.10;;;;;;5014158;28;20041;-60
2023/04/19 03:22:37;;;;;;;6.15;3.90;;;10.90;76.30;;;;;;5013759;28;20586;-60
2023/04/19 03:25:03;;;;;;;8.40;4.72;;;11.00;76.40;;;;;;5011578;28;20124;-60
2023/04/19 03:27:29;;;;;;;5.70;3.95;;;11.10;76.60;;;;;;5013922;28;20065;-61
2023/04/19 03:29:56;;;;;;;4.78;3.58;;;11.10;76.60;;;;;;5012742;28;20420;-60
2023/04/19 03:32:21;;;;;;;6.07;4.22;;;11.20;76.70;;;;;;5013223;28;20026;-60
2023/04/19 03:34:47;;;;;;;4.28;3.50;;;11.20;76.60;;;;;;5000840;28;20088;-60
2023/04/19 03:37:13;;;;;;;6.43;4.22;;;11.30;76.50;;;;;;5013319;28;20034;-61
2023/04/19 03:39:38;;;;;;;6.90;3.78;;;11.40;76.40;;;;;;5014249;28;20058;-61
2023/04/19 03:42:04;;;;;;;7.15;4.50;;;11.50;76.30;;;;;;5010947;28;20376;-60
2023/04/19 03:44:33;;;;;;;5.07;3.90;;;11.60;76.10;;;;;;5007086;28;20052;-61
2023/04/19 03:46:59;;;;;;;4.47;3.22;;;11.60;76.00;;;;;;5019020;28;20044;-60
2023/04/19 03:49:25;;;;;;;6.15;3.67;;;11.70;75.80;;;;;;5016007;28;20124;-60
2023/04/19 03:51:50;;;;;;;7.40;3.65;;;11.80;75.60;;;;;;5011354;28;20037;-61
2023/04/19 03:54:16;;;;;;;6.75;3.67;;;11.90;75.40;;;;;;5019634;28;20040;-60
2023/04/19 03:56:42;;;;;;;7.22;3.83;;;12.00;75.30;;;;;;5016194;28;20036;-61
2023/04/19 03:59:08;;;;;;;5.05;3.67;;;12.10;75.10;;;;;;5012216;28;20069;-60
2023/04/19 04:01:34;;;;;;;4.88;3.83;;;12.20;75.10;;;;;;5014434;28;20037;-60
2023/04/19 04:04:00;;;;;;;5.38;3.70;;;12.20;75.00;;;;;;5018398;28;20083;-60
2023/04/19 04:06:26;;;;;;;5.15;3.67;;;12.40;74.60;;;;;;5009873;28;20029;-60
2023/04/19 04:08:51;;;;;;;6.20;3.90;;;12.50;74.60;;;;;;5011667;28;20381;-61
2023/04/19 04:11:17;;;;;;;5.45;3.60;;;12.60;74.20;;;;;;5009891;28;20534;-60
2023/04/19 04:13:45;;;;;;;7.03;3.78;;;12.80;74.00;;;;;;5012827;28;20033;-60
2023/04/19 04:16:11;;;;;;;4.40;3.50;;;12.90;73.60;;;;;;5011505;28;20038;-61
2023/04/19 04:18:36;;;;;;;6.88;3.50;;;13.10;73.50;;;;;;5018972;28;20045;-60
2023/04/19 04:21:02;;;;;;;6.90;3.70;;;13.30;72.90;;;;;;5010396;28;20080;-60
2023/04/19 04:23:28;;;;;;;4.90;3.83;;;13.50;72.20;;;;;;5016293;28;20030;-60
2023/04/19 04:25:59;;;;;;;6.03;3.72;;;13.70;71.50;;;;;;5007674;28;20056;-60
2023/04/19 04:28:26;;;;;;;5.13;3.47;;;14.00;71.10;;;;;;5015201;28;20112;-60
2023/04/19 04:30:56;;;;;;;5.65;3.72;;;14.30;70.40;;;;;;5012481;28;20120;-61
2023/04/19 04:33:25;;;;;;;6.50;3.58;;;14.60;69.80;;;;;;5003076;28;20080;-61
2023/04/19 04:35:52;;;;;;;6.13;3.53;;;15.00;68.90;;;;;;5010279;28;20033;-61
2023/04/19 04:38:19;;;;;;;4.80;3.58;;;15.40;68.10;;;;;;5017773;28;20029;-59
2023/04/19 04:40:54;;;;;;;5.65;3.33;;;15.70;67.50;;;;;;5011818;28;20081;-59
2023/04/19 04:43:21;;;;;;;4.28;3.00;;;16.10;66.70;;;;;;5006432;28;20440;-61
2023/04/19 04:45:47;;;;;;;5.15;3.33;;;16.40;66.00;;;;;;5011040;28;20052;-60
2023/04/19 04:48:13;;;;;;;4.90;3.30;;;16.70;65.60;;;;;;5021652;28;20061;-60
2023/04/19 04:50:39;;;;;;;5.65;3.20;;;17.00;65.00;;;;;;5009789;28;20042;-60
2023/04/19 04:53:05;;;;;;;3.50;3.10;;;17.30;64.40;;;;;;5009985;28;20033;-60
2023/04/19 04:55:31;;;;;;;4.97;3.70;;;17.50;63.90;;;;;;5021051;28;20054;-60
2023/04/19 04:57:56;;;;;;;8.13;3.63;;;17.80;63.50;;;;;;5010171;28;20068;-60
2023/04/19 05:00:22;;;;;;;6.82;3.72;;;18.00;62.80;;;;;;5008574;28;20030;-60
2023/04/19 05:02:48;;;;;;;5.28;3.63;;;18.10;62.10;;;;;;5008619;28;20113;-60
2023/04/19 05:05:14;;;;;;;6.35;3.63;;;18.20;61.80;;;;;;5007302;28;20381;-60
2023/04/19 05:07:39;;;;;;;3.67;3.25;;;18.30;61.70;;;;;;5011109;28;20026;-61
2023/04/19 05:10:06;;;;;;;4.45;3.53;;;18.50;61.30;;;;;;5010171;28;20037;-60
2023/04/19 05:12:32;;;;;;;5.55;3.17;;;18.60;61.10;;;;;;5011873;28;20026;-61
2023/04/19 05:14:58;;;;;;;7.18;3.35;;;18.80;60.90;;;;;;5014567;28;20870;-61
2023/04/19 05:17:24;;;;;;;6.28;3.40;;;18.90;60.60;;;;;;5004413;28;20038;-61
2023/04/19 05:19:50;;;;;;;3.92;2.95;;;19.30;60.00;;;;;;5017700;28;20112;-61
2023/04/19 05:22:15;;;;;;;5.68;3.08;;;19.50;59.30;;;;;;5015128;28;20438;-61
2023/04/19 05:24:41;;;;;;;3.83;3.08;;;19.70;58.70;;;;;;5012251;28;20025;-60
2023/04/19 05:27:07;;;;;;;4.47;2.65;;;20.00;58.40;;;;;;5008011;28;20145;-60
2023/04/19 05:29:32;;;;;;;5.60;3.45;;;20.20;57.80;;;;;;5017086;28;20030;-60
2023/04/19 05:31:58;;;;;;;5.65;3.60;;;20.40;57.00;;;;;;5002356;28;20096;-60
2023/04/19 05:34:24;;;;;;;5.05;3.20;;;20.50;56.30;;;;;;5003524;28;20029;-61
2023/04/19 05:36:49;;;;;;;5.72;3.50;;;20.50;55.70;;;;;;4996901;28;20046;-61
2023/04/19 05:39:16;;;;;;;6.03;3.00;;;20.30;55.40;;;;;;5003219;28;20432;-61
2023/04/19 05:41:41;;;;;;;6.93;3.47;;;20.10;55.60;;;;;;5010242;28;20088;-62
2023/04/19 05:44:07;;;;;;;6.22;3.60;;;19.80;55.70;;;;;;5006560;28;20037;-61
2023/04/19 05:46:33;;;;;;;5.50;3.30;;;19.50;56.00;;;;;;5008566;28;20511;-61
2023/04/19 05:48:58;;;;;;;6.30;3.20;;;19.20;56.30;;;;;;5005296;28;20037;-61
2023/04/19 05:51:24;;;;;;;6.85;3.50;;;18.90;56.30;;;;;;5004689;28;20034;-61
2023/04/19 05:53:50;;;;;;;5.50;3.30;;;18.60;56.60;;;;;;5008497;28;20045;-62
2023/04/19 05:56:16;;;;;;;4.82;3.15;;;18.30;57.10;;;;;;5007646;28;20076;-63
2023/04/19 05:58:41;;;;;;;3.65;2.85;;;18.10;57.20;;;;;;4998913;28;20041;-61
2023/04/19 06:01:07;;;;;;;4.85;2.97;;;17.80;57.70;;;;;;5004661;28;20038;-61
2023/04/19 06:03:32;;;;;;;5.50;3.70;;;17.60;58.10;;;;;;5011178;28;20070;-62
2023/04/19 06:05:58;;;;;;;5.18;3.15;;;17.30;58.30;;;;;;5005248;28;20107;-61
2023/04/19 06:08:24;;;;;;;5.22;3.30;;;17.10;58.70;;;;;;5003070;28;20421;-61
2023/04/19 06:10:53;;;;;;;6.25;3.80;;;16.90;59.00;;;;;;5011412;28;20044;-60
2023/04/19 06:13:18;;;;;;;4.00;3.10;;;16.80;59.30;;;;;;5003588;28;20022;-61
2023/04/19 06:15:45;;;;;;;3.85;2.90;;;16.70;59.60;;;;;;5000534;28;20483;-61
2023/04/19 06:18:10;;;;;;;4.40;3.00;;;16.60;59.80;;;;;;5004826;28;20042;-62
2023/04/19 06:20:37;;;;;;;3.90;3.15;;;16.40;59.90;;;;;;4995823;28;20566;-58
2023/04/19 06:23:02;;;;;;;5.43;3.22;;;16.40;60.30;;;;;;4995945;28;20042;-60
2023/04/19 06:25:28;;;;;;;4.68;3.40;;;16.30;60.40;;;;;;4995101;28;20037;-60
2023/04/19 06:27:54;;;;;;;4.90;3.30;;;16.20;60.60;;;;;;4995324;28;20128;-59
2023/04/19 06:30:20;;;;;;;3.70;3.10;;;16.20;60.90;;;;;;5005389;28;20938;-61
2023/04/19 06:32:45;;;;;;;4.88;3.00;;;16.10;61.20;;;;;;4993236;28;20044;-62
2023/04/19 06:35:11;;;;;;;4.10;3.05;;;16.00;61.50;;;;;;4998227;28;20160;-61
2023/04/19 06:37:37;;;;;;;6.03;3.15;;;16.00;61.60;;;;;;4997287;28;20861;-61
2023/04/19 06:40:07;;;;;;;6.18;3.30;;;15.90;61.80;;;;;;4994399;28;20761;-61
2023/04/19 06:42:33;;;;;;;5.57;3.20;;;15.90;62.20;;;;;;4991555;28;20098;-61
2023/04/19 06:44:59;;;;;;;5.40;3.15;;;15.90;62.20;;;;;;4993022;28;20728;-60
2023/04/19 06:47:25;;;;;;;5.07;3.40;;;15.80;62.40;;;;;;4995206;28;20026;-61
2023/04/19 06:49:51;;;;;;;3.63;3.05;;;15.80;62.40;;;;;;5000437;28;20030;-60
2023/04/19 06:52:16;;;;;;;5.85;3.47;;;15.80;62.70;;;;;;4986918;28;24029;-62
2023/04/19 06:54:49;;;;;;;4.88;3.30;;;15.80;62.90;;;;;;4986925;28;20037;-61
2023/04/19 06:57:15;;;;;;;5.95;3.15;;;15.80;63.10;;;;;;4978496;28;20045;-61
2023/04/19 06:59:41;;;;;;;6.85;3.30;;;15.80;63.30;;;;;;4993780;28;20034;-62
2023/04/19 07:02:07;;;;;;;5.07;3.30;;;15.80;63.40;;;;;;4992534;28;20029;-61
2023/04/19 07:04:33;;;;;;;5.78;3.50;;;15.80;63.30;;;;;;4986441;28;20080;-61
2023/04/19 07:06:59;;;;;;;5.68;3.50;;;15.80;63.30;;;;;;4971714;28;20034;-59
2023/04/19 07:09:26;;;;;;;4.63;3.20;;;15.70;63.50;;;;;;4981607;28;20467;-60
2023/04/19 07:11:51;;;;;;;5.82;3.22;;;15.60;63.60;;;;;;4988992;28;20064;-60
2023/04/19 07:14:18;;;;;;;9.95;3.65;;;15.60;63.70;;;;;;4984162;28;20164;-59
2023/04/19 07:16:45;;;;;;;7.10;3.22;;;15.40;63.90;;;;;;4980492;28;20037;-61
2023/04/19 07:19:11;;;;;;;7.55;3.38;;;15.30;64.00;;;;;;4974933;28;20652;-61
2023/04/19 07:21:38;;;;;;;6.43;3.83;;;15.20;64.00;;;;;;4981757;28;20042;-60
2023/04/19 07:24:07;;;;;;;5.60;3.08;;;15.10;64.30;;;;;;4988563;28;20105;-61
2023/04/19 07:26:33;;;;;;;10.27;3.88;;;15.00;64.70;;;;;;4987983;28;20026;-56
2023/04/19 07:29:02;;;;;;;5.85;3.42;;;14.80;64.90;;;;;;4986157;28;20746;-58
2023/04/19 07:31:28;;;;;;;4.63;3.20;;;14.70;65.30;;;;;;4982742;28;20180;-58
2023/04/19 07:33:53;;;;;;;6.70;3.30;;;14.70;65.80;;;;;;4986593;28;20811;-54
2023/04/19 07:36:20;;;;;;;5.35;3.50;;;14.60;66.20;;;;;;4982351;28;20046;-59
2023/04/19 07:38:46;;;;;;;6.82;3.50;;;14.50;66.50;;;;;;4981568;28;20034;-57
2023/04/19 07:41:11;;;;;;;4.78;3.28;;;14.50;66.80;;;;;;4978459;28;20061;-58
2023/04/19 07:43:37;;;;;;;5.93;3.53;;;14.50;66.80;;;;;;4970619;28;20129;-59
2023/04/19 07:46:11;;;;;;;6.45;3.70;;;14.50;67.20;;;;;;4978715;28;20030;-59
2023/04/19 07:48:37;;;;;;;6.85;3.83;;;14.50;67.30;;;;;;4982399;28;20637;-57
2023/04/19 07:51:13;;;;;;;7.70;3.47;;;14.50;67.50;;;;;;4981737;28;20041;-58
2023/04/19 07:53:40;;;;;;;6.40;3.88;;;14.40;67.50;;;;;;4989903;28;20037;-57
2023/04/19 07:56:10;;;;;;;9.30;3.72;;;14.40;67.80;;;;;;4991153;28;20512;-58
2023/04/19 07:58:38;;;;;;;7.18;3.63;;;14.40;68.20;;;;;;4979115;28;20061;-59
2023/04/19 08:01:04;;;;;;;8.07;3.63;;;14.40;68.20;;;;;;4979222;28;20148;-60
2023/04/19 08:03:30;;;;;;;5.35;3.47;;;14.40;68.20;;;;;;4986330;28;20125;-58
2023/04/19 08:05:56;;;;;;;5.72;3.53;;;14.40;68.20;;;;;;4987614;28;20038;-60
2023/04/19 08:08:23;;;;;;;7.82;4.03;;;14.40;68.30;;;;;;4981666;28;20153;-58
2023/04/19 08:10:49;;;;;;;6.43;3.25;;;14.40;68.20;;;;;;4989614;28;20717;-58
2023/04/19 08:13:15;;;;;;;6.38;3.47;;;14.40;68.10;;;;;;4972304;28;20049;-59
2023/04/19 08:15:41;;;;;;;4.72;3.10;;;14.40;68.40;;;;;;4979621;28;20030;-61
2023/04/19 08:18:06;;;;;;;6.95;3.50;;;14.50;68.40;;;;;;4961934;28;20053;-58
2023/04/19 08:20:32;;;;;;;6.47;3.30;;;14.60;68.40;;;;;;4976682;28;20030;-57
2023/04/19 08:22:59;;;;;;;4.85;3.28;;;14.70;68.10;;;;;;4968993;28;20044;-62
2023/04/19 08:25:27;;;;;;;6.45;3.72;;;14.80;67.70;;;;;;4976537;28;20099;-59
2023/04/19 08:27:54;;;;;;;4.05;3.00;;;14.90;67.40;;;;;;4977587;28;20172;-61
2023/04/19 08:30:20;;;;;;;4.90;3.60;;;15.00;67.40;;;;;;4975234;28;20049;-59
2023/04/19 08:32:45;;;;;;;7.97;3.40;;;15.10;67.20;;;;;;4964110;28;20116;-58
2023/04/19 08:35:12;;;;;;;4.97;3.47;;;15.20;67.00;;;;;;4970748;28;20100;-58
2023/04/19 08:37:38;;;;;;;5.90;3.40;;;15.30;66.90;;;;;;4971867;28;20746;-60
2023/04/19 08:40:04;;;;;;;7.28;3.67;;;15.30;66.90;;;;;;4970691;28;20045;-62
2023/04/19 08:42:31;;;;;;;7.85;3.50;;;15.40;67.00;;;;;;4984193;28;20034;-58
2023/04/19 08:45:02;;;;;;;5.57;3.38;;;15.40;67.10;;;;;;4986484;28;20106;-60
2023/04/19 08:47:28;;;;;;;3.83;3.27;;;15.50;67.10;;;;;;4979308;28;20120;-59
2023/04/19 08:49:55;;;;;;;4.95;3.42;;;15.60;67.20;;;;;;4984241;28;20279;-57
2023/04/19 08:52:23;;;;;;;6.53;3.63;;;15.70;67.20;;;;;;4976064;28;20038;-57
2023/04/19 08:54:50;;;;;;;6.18;3.70;;;15.70;67.20;;;;;;4984096;28;20686;-56
2023/04/19 08:57:16;;;;;;;5.13;3.10;;;15.80;67.10;;;;;;4972314;28;20216;-60
2023/04/19 08:59:44;;;;;;;6.15;3.70;;;15.90;66.90;;;;;;4980079;28;20034;-59
2023/04/19 09:02:10;;;;;;;4.85;3.30;;;15.90;66.80;;;;;;4976905;28;20038;-59
2023/04/19 09:04:35;;;;;;;5.80;3.67;;;15.90;66.80;;;;;;4986671;28;20963;-60
2023/04/19 09:07:01;;;;;;;7.40;3.33;;;16.00;67.00;;;;;;4979920;28;20062;-60
2023/04/19 09:09:29;;;;;;;5.40;3.22;;;16.00;67.40;;;;;;4988413;28;20156;-63
2023/04/19 09:11:56;;;;;;;7.40;3.55;;;15.90;67.30;;;;;;4979783;28;20393;-61
2023/04/19 09:14:24;;;;;;;6.60;3.65;;;15.90;67.50;;;;;;4980151;28;20093;-61
2023/04/19 09:16:51;;;;;;;5.13;3.50;;;15.90;67.70;;;;;;4981728;28;20073;-59
2023/04/19 09:19:17;;;;;;;9.20;3.58;;;15.90;67.90;;;;;;4985744;28;20030;-64
2023/04/19 09:21:43;;;;;;;9.40;3.58;;;15.90;68.00;;;;;;4987356;28;20034;-64
2023/04/19 09:24:09;;;;;;;4.30;3.20;;;15.90;67.90;;;;;;5005387;28;20044;-60
2023/04/19 09:26:35;;;;;;;5.97;3.38;;;15.90;67.60;;;;;;4978015;28;26664;-60
2023/04/19 09:29:03;;;;;;;5.65;3.38;;;15.90;67.50;;;;;;4977761;28;20092;-61
2023/04/19 09:31:30;;;;;;;10.65;3.67;;;15.90;67.50;;;;;;4977321;28;20045;-60
2023/04/19 09:33:56;;;;;;;3.90;3.05;;;16.00;67.50;;;;;;4978903;28;20026;-58
2023/04/19 09:36:27;;;;;;;5.97;3.45;;;16.00;67.50;;;;;;4983950;28;20038;-58
2023/04/19 09:38:53;;;;;;;4.20;2.97;;;16.00;67.50;;;;;;4977844;28;20144;-58
2023/04/19 09:41:20;;;;;;;6.72;3.58;;;16.10;67.50;;;;;;4980105;28;20046;-58
2023/04/19 09:43:46;;;;;;;6.05;3.40;;;16.10;67.40;;;;;;4982074;28;20065;-60
2023/04/19 09:46:30;;;;;;;4.15;3.13;;;16.10;67.40;;;;;;4986351;28;20046;-59
2023/04/19 09:49:25;;;;;;;7.90;3.33;;;16.20;67.40;;;;;;4961774;28;20033;-60
2023/04/19 09:51:52;;;;;;;6.88;3.50;;;16.20;67.20;;;;;;4982549;28;20038;-60
2023/04/19 09:54:20;;;;;;;7.55;3.28;;;16.20;67.20;;;;;;4973189;28;20026;-60
2023/04/19 09:56:46;;;;;;;6.78;3.78;;;16.20;67.10;;;;;;4982527;28;20112;-58
2023/04/19 09:59:12;;;;;;;6.30;3.33;;;16.10;67.00;;;;;;4970790;28;20088;-60
2023/04/19 10:01:46;;;;;;;8.38;3.45;;;16.20;67.20;;;;;;4978635;28;20216;-61
2023/04/19 10:04:22;;;;;;;7.57;3.50;;;16.10;67.20;;;;;;4967694;28;20048;-60
2023/04/19 10:06:49;;;;;;;13.63;3.63;;;16.20;67.30;;;;;;4970950;28;20040;-61
2023/04/19 10:09:16;;;;;;;8.85;3.20;;;16.20;67.30;;;;;;4982643;28;20038;-63
2023/04/19 10:11:47;;;;;;;7.18;3.60;;;16.20;67.90;;;;;;4984539;28;20133;-62
2023/04/19 10:14:15;;;;;;;7.90;3.75;;;16.30;67.30;;;;;;4968064;28;20037;-61
2023/04/19 10:16:40;;;;;;;7.32;3.65;;;16.30;67.40;;;;;;4975218;28;20049;-59
2023/04/19 10:19:17;;;;;;;10.90;3.35;;;16.30;67.70;;;;;;4982495;28;20110;-63
2023/04/19 10:21:46;;;;;;;7.60;3.35;;;16.30;67.70;;;;;;4980564;28;20046;-63
2023/04/19 10:24:13;;;;;;;7.22;3.40;;;16.20;67.70;;;;;;4980364;28;20745;-60
2023/04/19 10:27:04;;;;;;;7.03;3.60;;;16.10;67.80;;;;;;4983778;28;20034;-63
2023/04/19 10:29:58;;;;;;;9.77;3.78;;;16.00;68.00;;;;;;4986480;28;20030;-62
2023/04/19 10:32:38;;;;;;;6.85;3.40;;;15.90;68.00;;;;;;4966952;28;20041;-62
2023/04/19 10:35:09;;;;;;;12.02;3.95;;;15.70;68.00;;;;;;4965439;28;20038;-60
2023/04/19 10:37:39;;;;;;;7.10;3.85;;;15.70;68.40;;;;;;4970344;28;20045;-59
2023/04/19 10:40:06;;;;;;;13.02;3.78;;;15.60;68.50;;;;;;4978307;28;20049;-61
2023/04/19 10:43:10;;;;;;;13.10;3.60;;;15.50;68.80;;;;;;4984487;28;20460;-60
2023/04/19 10:45:36;;;;;;;10.50;3.97;;;15.40;69.20;;;;;;4964281;28;20042;-61
2023/04/19 10:48:03;;;;;;;10.35;3.95;;;15.30;69.50;;;;;;4971737;28;21280;-61
2023/04/19 10:50:29;;;;;;;10.95;4.20;;;15.20;69.80;;;;;;4944715;28;20042;-64
2023/04/19 10:52:54;;;;;;;7.50;3.60;;;15.10;70.20;;;;;;4962533;28;20038;-63
2023/04/19 10:55:20;;;;;;;12.95;3.25;;;15.10;70.50;;;;;;4971345;28;20116;-62
2023/04/19 10:58:05;;;;;;;21.40;5.90;;;15.10;70.70;;;;;;4969779;28;20045;-64
2023/04/19 11:00:32;;;;;;;16.58;5.43;;;15.20;70.90;;;;;;4967077;28;20864;-64
2023/04/19 11:03:37;;;;;;;8.43;3.53;;;15.20;71.20;;;;;;4965629;28;20052;-62
2023/04/19 11:06:18;;;;;;;14.00;4.97;;;15.20;71.20;;;;;;4975016;28;20022;-60
2023/04/19 11:08:44;;;;;;;9.40;3.25;;;15.20;71.20;;;;;;4981880;28;20061;-62
2023/04/19 11:11:10;;;;;;;9.93;3.35;;;15.30;71.20;;;;;;4968585;28;20107;-63
2023/04/19 11:13:36;;;;;;;10.55;3.35;;;15.50;71.10;;;;;;4971272;28;20543;-63
2023/04/19 11:16:09;;;;;;;5.95;3.53;;;15.50;71.00;;;;;;4980499;28;20033;-64
2023/04/19 11:18:34;;;;;;;9.40;3.58;;;15.60;71.00;;;;;;4972295;28;20037;-63
2023/04/19 11:21:00;;;;;;;7.95;3.30;;;15.70;70.90;;;;;;4970837;28;20038;-63
2023/04/19 11:23:26;;;;;;;10.63;3.65;;;15.80;70.80;;;;;;4984795;28;20061;-63
2023/04/19 11:25:52;;;;;;;11.45;3.83;;;15.80;70.40;;;;;;4979223;28;22023;-62
2023/04/19 11:28:18;;;;;;;10.05;3.38;;;15.90;70.40;;;;;;4984806;28;20032;-60
2023/04/19 11:30:44;;;;;;;11.65;3.55;;;15.90;70.20;;;;;;4980501;28;20634;-64
2023/04/19 11:33:11;;;;;;;9.13;3.55;;;15.90;70.10;;;;;;4971809;28;20037;-64
2023/04/19 11:35:37;;;;;;;11.40;3.78;;;15.90;69.80;;;;;;4971110;28;20520;-59
2023/04/19 11:38:06;;;;;;;8.20;3.40;;;15.90;69.70;;;;;;4979821;28;20048;-61
2023/04/19 11:40:32;;;;;;;14.68;3.80;;;15.90;69.80;;;;;;4981384;28;20099;-61
2023/04/19 11:43:03;;;;;;;12.52;3.67;;;15.90;69.80;;;;;;4983586;28;20154;-61
2023/04/19 11:45:35;;;;;;;12.43;3.92;;;15.90;69.90;;;;;;4980695;28;20033;-61
2023/04/19 11:48:01;;;;;;;9.07;3.40;;;15.90;70.10;;;;;;4974620;28;20065;-61
2023/04/19 11:50:31;;;;;;;13.85;3.92;;;15.90;70.10;;;;;;4973496;28;20597;-61
2023/04/19 11:52:57;;;;;;;10.52;3.58;;;15.90;70.20;;;;;;4971600;28;20124;-59
2023/04/19 11:55:23;;;;;;;7.60;3.17;;;16.00;70.20;;;;;;4984632;28;21141;-59
2023/04/19 11:57:49;;;;;;;8.85;3.50;;;16.00;70.20;;;;;;4968467;28;20093;-62
2023/04/19 12:00:15;;;;;;;14.85;3.60;;;16.00;69.80;;;;;;4958793;28;20391;-62
2023/04/19 12:02:45;;;;;;;10.13;4.07;;;16.10;69.70;;;;;;4932693;28;20041;-62
2023/04/19 12:05:12;;;;;;;8.23;3.75;;;16.10;69.50;;;;;;4970084;28;20160;-60
2023/04/19 12:08:00;;;;;;;10.00;3.22;;;16.10;69.40;;;;;;4967383;28;20034;-61
2023/04/19 12:10:26;;;;;;;10.98;3.50;;;16.10;69.30;;;;;;4969935;28;20034;-61
2023/04/19 12:12:52;;;;;;;8.50;3.63;;;16.10;69.30;;;;;;4978348;28;20133;-61
2023/04/19 12:15:17;;;;;;;12.75;3.63;;;16.00;69.20;;;;;;4980414;28;20077;-61
2023/04/19 12:18:03;;;;;;;9.50;3.78;;;15.90;69.30;;;;;;4988023;28;20036;-61
2023/04/19 12:20:29;;;;;;;11.48;3.50;;;15.90;69.30;;;;;;4982847;28;20042;-61
2023/04/19 12:22:55;;;;;;;12.23;3.90;;;15.80;69.40;;;;;;4979953;28;20078;-61
2023/04/19 12:25:20;;;;;;;13.35;3.78;;;15.80;69.40;;;;;;4980503;28;20038;-60
2023/04/19 12:27:46;;;;;;;13.85;3.75;;;15.70;69.40;;;;;;4978513;28;20101;-62
2023/04/19 12:30:12;;;;;;;7.20;3.13;;;15.70;69.90;;;;;;4985229;28;20460;-62
2023/04/19 12:32:37;;;;;;;6.75;3.40;;;15.60;69.70;;;;;;4986007;28;20038;-62
2023/04/19 12:35:03;;;;;;;11.52;4.13;;;15.60;70.60;;;;;;4975472;28;20029;-63
2023/04/19 12:37:29;;;;;;;16.30;4.00;;;15.50;69.90;;;;;;4974430;28;20044;-64
2023/04/19 12:39:54;;;;;;;8.52;3.97;;;15.50;70.20;;;;;;4968549;28;20066;-62
2023/04/19 12:42:20;;;;;;;10.38;3.40;;;15.40;70.20;;;;;;4971544;28;21815;-61
2023/04/19 12:44:46;;;;;;;8.40;3.30;;;15.40;70.40;;;;;;4974894;28;20057;-63